Archival Weather

Republic

Farmingdale, New York (KFRG)

Report from: Friday, February 2, 2024 1:53 AM EST
Current time: Monday, June 17, 2024 3:08 AM EDT

Current weather – Weather history – Daily summaries
Weather forecast

Present weatherHaze
Temperature5.6°C (42.1°F)
Wind chill4.6°C (40.2°F)
Dew point2.8°C (37.0°F)
Winds 3 kts (1.5 m/s, 3.5 mph) West-Northwest (300°)
Visibility6 mi. (9.7 km)
Clouds Ceiling: Broken clouds 3,100 ft. (945 m)
Overcast 4,500 ft. (1,372 m)
Altimeter29.88 in.Hg (1012 mB)
Relative humidity82 %
Density altitude-978 ft. (-298 m)
Sea-level pressure101.2 kPa (1012 mB, 29.88 in.Hg)
Remarks Fully automated report
Automated weather observing station without precipitation discriminator
Flight conditions Visual Meteorological Conditions
Raw dataKFRG 020653Z AUTO 30003KT 6SM HZ BKN031 OVC045 06/03 A2988 RMK AO1 SLP119 T00560028
An error has occurred. This application may no longer respond until reloaded. Reload 🗙